Time;durP1;ratioP1;P1;durP2;ratioP2;P2;SDS_P1;SDS_P2;PMS_P1;PMS_P2;Temp;Humidity;BMP_temperature;BMP_pressure;BME280_temperature;BME280_humidity;BME280_pressure;Samples;Min_cycle;Max_cycle;Signal;HPM_P1;HPM_P2
2022/06/21 00:02:04;;;;;;;6.78;2.78;;;;;;;;;;4404861;32;20374;-58
2022/06/21 00:04:30;;;;;;;2.67;1.95;;;;;;;;;;4390968;32;20320;-58
2022/06/21 00:06:58;;;;;;;5.55;2.78;;;;;;;;;;4404881;32;20273;-59
2022/06/21 00:09:24;;;;;;;3.85;2.42;;;;;;;;;;4390892;32;20253;-58
2022/06/21 00:11:49;;;;;;;5.45;2.42;;;;;;;;;;4403473;32;20267;-58
2022/06/21 00:14:15;;;;;;;3.62;2.30;;;;;;;;;;4404412;32;20261;-59
2022/06/21 00:16:40;;;;;;;3.30;2.50;;;;;;;;;;4404577;32;20224;-58
2022/06/21 00:19:15;;;;;;;6.50;2.70;;;;;;;;;;4404442;32;20353;-58
2022/06/21 00:21:41;;;;;;;2.40;1.87;;;;;;;;;;4404554;32;20235;-59
2022/06/21 00:24:07;;;;;;;4.03;2.40;;;;;;;;;;4404888;32;20419;-58
2022/06/21 00:26:32;;;;;;;4.00;2.20;;;;;;;;;;4404326;32;20217;-58
2022/06/21 00:28:58;;;;;;;2.62;2.17;;;;;;;;;;4404239;32;20221;-58
2022/06/21 00:31:35;;;;;;;3.85;2.20;;;;;;;;;;4404389;32;20221;-58
2022/06/21 00:34:13;;;;;;;4.00;3.50;;;;;;;;;;4404554;32;20225;-58
2022/06/21 00:36:39;;;;;;;8.90;2.87;;;;;;;;;;4399786;32;20735;-58
2022/06/21 00:39:06;;;;;;;3.55;2.78;;;;;;;;;;4389105;32;20233;-58
2022/06/21 00:41:45;;;;;;;6.95;2.28;;;;;;;;;;4389156;32;20292;-57
2022/06/21 00:44:16;;;;;;;4.22;2.22;;;;;;;;;;4375259;32;20247;-58
2022/06/21 00:46:47;;;;;;;3.33;2.05;;;;;;;;;;4389280;32;20281;-58
2022/06/21 00:49:24;;;;;;;3.42;2.10;;;;;;;;;;4389205;32;20275;-58
2022/06/21 00:51:53;;;;;;;4.03;1.98;;;;;;;;;;4389133;32;20677;-58
2022/06/21 00:54:25;;;;;;;3.05;2.55;;;;;;;;;;4389162;32;20325;-58
2022/06/21 00:56:59;;;;;;;3.30;2.30;;;;;;;;;;4388958;32;20205;-58
2022/06/21 00:59:29;;;;;;;4.45;3.15;;;;;;;;;;4387430;32;20237;-58
2022/06/21 01:02:03;;;;;;;2.87;2.58;;;;;;;;;;4388729;32;20289;-57
2022/06/21 01:04:39;;;;;;;2.50;2.30;;;;;;;;;;4388998;32;20748;-57
2022/06/21 01:07:08;;;;;;;9.10;2.25;;;;;;;;;;4389126;32;20891;-57
2022/06/21 01:09:39;;;;;;;2.90;2.03;;;;;;;;;;4388770;32;20225;-58
2022/06/21 01:12:13;;;;;;;3.90;2.60;;;;;;;;;;4402657;32;20371;-58
2022/06/21 01:14:46;;;;;;;3.10;2.50;;;;;;;;;;4403463;32;20202;-58
2022/06/21 01:17:12;;;;;;;4.22;2.78;;;;;;;;;;4403932;32;20281;-57
2022/06/21 01:19:42;;;;;;;2.60;2.05;;;;;;;;;;4403470;32;20282;-57
2022/06/21 01:22:17;;;;;;;6.07;2.25;;;;;;;;;;4403709;32;20252;-57
2022/06/21 01:25:01;;;;;;;2.58;1.87;;;;;;;;;;4403863;32;20237;-57
2022/06/21 01:27:26;;;;;;;3.78;2.72;;;;;;;;;;4403419;32;20407;-58
2022/06/21 01:29:53;;;;;;;2.30;2.10;;;;;;;;;;4403803;32;20229;-58
2022/06/21 01:32:18;;;;;;;3.70;2.40;;;;;;;;;;4403745;32;20227;-58
2022/06/21 01:34:44;;;;;;;6.70;2.42;;;;;;;;;;4403740;32;20214;-58
2022/06/21 01:37:20;;;;;;;7.12;2.22;;;;;;;;;;4395757;32;20295;-58
2022/06/21 01:40:25;;;;;;;3.67;2.28;;;;;;;;;;4388597;32;20217;-58
2022/06/21 01:42:54;;;;;;;4.18;2.67;;;;;;;;;;4388088;32;20669;-58
2022/06/21 01:45:34;;;;;;;2.10;1.90;;;;;;;;;;4388344;32;20206;-58
2022/06/21 01:48:22;;;;;;;3.42;1.83;;;;;;;;;;4388331;32;20276;-58
2022/06/21 01:50:53;;;;;;;5.70;2.10;;;;;;;;;;4388331;32;20299;-58
2022/06/21 01:53:21;;;;;;;7.07;2.85;;;;;;;;;;4374424;32;20287;-58
2022/06/21 01:56:00;;;;;;;2.33;2.10;;;;;;;;;;4388433;32;20315;-58
2022/06/21 01:58:29;;;;;;;3.58;2.05;;;;;;;;;;4387848;32;20244;-58
2022/06/21 02:01:21;;;;;;;5.45;2.78;;;;;;;;;;4388194;32;20240;-58
2022/06/21 02:03:52;;;;;;;5.72;2.90;;;;;;;;;;4388211;32;20445;-58
2022/06/21 02:06:20;;;;;;;3.08;2.12;;;;;;;;;;4389175;32;20194;-58
2022/06/21 02:08:54;;;;;;;2.22;1.77;;;;;;;;;;4403067;32;20666;-58
2022/06/21 02:11:30;;;;;;;3.10;2.28;;;;;;;;;;4402622;32;20578;-59
2022/06/21 02:16:47;;;;;;;3.28;2.25;;;;;;;;;;4388104;32;20688;-57
2022/06/21 02:19:31;;;;;;;7.03;2.05;;;;;;;;;;4399579;32;20265;-57
2022/06/21 02:21:57;;;;;;;3.10;2.05;;;;;;;;;;4403155;32;20323;-56
2022/06/21 02:24:23;;;;;;;7.18;2.37;;;;;;;;;;4403084;32;20217;-57
2022/06/21 02:26:51;;;;;;;3.45;2.72;;;;;;;;;;4402831;32;20236;-56
2022/06/21 02:29:17;;;;;;;8.32;5.43;;;;;;;;;;4402200;32;20299;-56
2022/06/21 02:31:44;;;;;;;7.70;4.60;;;;;;;;;;4402814;32;20672;-56
2022/06/21 02:34:33;;;;;;;7.18;4.70;;;;;;;;;;4402951;32;20248;-57
2022/06/21 02:37:01;;;;;;;4.40;3.97;;;;;;;;;;4396086;32;20244;-57
2022/06/21 02:39:29;;;;;;;10.50;4.37;;;;;;;;;;4387659;32;20366;-58
2022/06/21 02:42:17;;;;;;;6.53;4.28;;;;;;;;;;4387362;32;20299;-57
2022/06/21 02:45:01;;;;;;;5.65;4.45;;;;;;;;;;4373985;32;20237;-58
2022/06/21 02:47:32;;;;;;;7.20;4.03;;;;;;;;;;4387385;32;20307;-57
2022/06/21 02:50:25;;;;;;;6.65;3.97;;;;;;;;;;4387313;32;20244;-57
2022/06/21 02:52:53;;;;;;;11.85;3.83;;;;;;;;;;4387380;32;20263;-57
2022/06/21 02:55:29;;;;;;;7.62;3.53;;;;;;;;;;4387260;32;20209;-57
2022/06/21 02:58:01;;;;;;;7.10;3.12;;;;;;;;;;4386930;32;20236;-57
2022/06/21 03:00:27;;;;;;;3.17;2.87;;;;;;;;;;4387411;32;20356;-56
2022/06/21 03:02:53;;;;;;;6.28;2.45;;;;;;;;;;4390501;32;20269;-57
2022/06/21 03:05:26;;;;;;;5.10;2.97;;;;;;;;;;4402381;32;20213;-57
2022/06/21 03:07:57;;;;;;;3.58;2.53;;;;;;;;;;4402193;32;20544;-57
2022/06/21 03:10:35;;;;;;;3.00;2.47;;;;;;;;;;4402346;32;20213;-57
2022/06/21 03:13:07;;;;;;;9.35;2.42;;;;;;;;;;4401931;32;20626;-57
2022/06/21 03:15:34;;;;;;;4.90;2.80;;;;;;;;;;4402395;32;20232;-57
2022/06/21 03:18:24;;;;;;;4.22;3.15;;;;;;;;;;4401990;32;20300;-57
2022/06/21 03:20:51;;;;;;;4.90;2.75;;;;;;;;;;4379674;32;20567;-57
2022/06/21 03:23:18;;;;;;;4.07;2.65;;;;;;;;;;4400825;32;20288;-58
2022/06/21 03:25:57;;;;;;;13.95;2.65;;;;;;;;;;4402226;32;20245;-56
2022/06/21 03:28:25;;;;;;;4.50;2.65;;;;;;;;;;4401993;32;20693;-56
2022/06/21 03:31:20;;;;;;;3.62;2.67;;;;;;;;;;4401839;32;20213;-56
2022/06/21 03:33:51;;;;;;;7.15;3.05;;;;;;;;;;4384683;32;20213;-56
2022/06/21 03:36:19;;;;;;;5.15;3.05;;;;;;;;;;4399827;32;20365;-57
2022/06/21 03:38:48;;;;;;;3.70;2.95;;;;;;;;;;4387062;32;20280;-56
2022/06/21 03:44:07;;;;;;;3.60;2.67;;;;;;;;;;4387256;32;20639;-57
2022/06/21 03:46:50;;;;;;;5.18;3.12;;;;;;;;;;4387071;32;20201;-56
2022/06/21 03:49:40;;;;;;;9.32;4.53;;;;;;;;;;4386217;32;20249;-58
2022/06/21 03:52:12;;;;;;;5.30;4.50;;;;;;;;;;4386874;32;20198;-56
2022/06/21 03:54:43;;;;;;;4.78;4.28;;;;;;;;;;4386671;32;20221;-56
2022/06/21 03:57:23;;;;;;;9.77;4.60;;;;;;;;;;4386258;32;20210;-57
2022/06/21 04:00:00;;;;;;;6.55;4.22;;;;;;;;;;4394262;32;20210;-57
2022/06/21 04:02:53;;;;;;;4.90;3.90;;;;;;;;;;4401681;32;20198;-57
2022/06/21 04:05:53;;;;;;;9.80;3.83;;;;;;;;;;4401631;32;20224;-57
2022/06/21 04:08:25;;;;;;;6.30;3.40;;;;;;;;;;4382151;32;20237;-56
2022/06/21 04:10:59;;;;;;;4.82;3.53;;;;;;;;;;4401934;32;20319;-56
2022/06/21 04:13:34;;;;;;;4.82;2.60;;;;;;;;;;4401281;32;20249;-56
2022/06/21 04:16:03;;;;;;;4.93;3.17;;;;;;;;;;4401553;32;20280;-57
2022/06/21 04:18:38;;;;;;;3.45;2.90;;;;;;;;;;4401123;32;20233;-57
2022/06/21 04:21:13;;;;;;;8.98;4.03;;;;;;;;;;4401590;32;20219;-57
2022/06/21 04:23:49;;;;;;;8.48;3.42;;;;;;;;;;4401577;32;20285;-57
2022/06/21 04:26:34;;;;;;;5.35;3.55;;;;;;;;;;4401593;32;20617;-57
2022/06/21 04:29:17;;;;;;;7.93;3.40;;;;;;;;;;4401560;32;20328;-57
2022/06/21 04:31:59;;;;;;;16.33;3.87;;;;;;;;;;4401676;32;20760;-57
2022/06/21 04:34:36;;;;;;;6.22;4.20;;;;;;;;;;4401578;32;20221;-56
2022/06/21 04:37:08;;;;;;;8.82;4.07;;;;;;;;;;4397357;32;20288;-56
2022/06/21 04:39:48;;;;;;;5.85;4.22;;;;;;;;;;4388890;32;20287;-57
2022/06/21 04:42:28;;;;;;;4.53;2.97;;;;;;;;;;4388581;32;20218;-57
2022/06/21 04:45:06;;;;;;;5.07;4.20;;;;;;;;;;4388711;32;20248;-56
2022/06/21 04:47:48;;;;;;;10.40;4.03;;;;;;;;;;4388440;32;20296;-57
2022/06/21 04:50:36;;;;;;;8.88;4.25;;;;;;;;;;4389165;32;20676;-57
2022/06/21 04:53:15;;;;;;;8.38;4.47;;;;;;;;;;4388482;32;20548;-57
2022/06/21 04:55:52;;;;;;;15.77;4.18;;;;;;;;;;4393514;32;20549;-57
2022/06/21 04:58:18;;;;;;;8.40;4.45;;;;;;;;;;4403272;32;20229;-57
2022/06/21 05:00:43;;;;;;;7.28;4.43;;;;;;;;;;4403196;32;20263;-57
2022/06/21 05:03:34;;;;;;;6.70;4.00;;;;;;;;;;4402786;32;20213;-57
2022/06/21 05:06:01;;;;;;;15.15;4.30;;;;;;;;;;4402235;32;20263;-57
2022/06/21 05:08:26;;;;;;;4.62;3.25;;;;;;;;;;4401243;32;20336;-56
2022/06/21 05:10:59;;;;;;;6.40;3.92;;;;;;;;;;4401212;32;20508;-56
2022/06/21 05:13:48;;;;;;;4.57;3.87;;;;;;;;;;4401044;32;20636;-57
2022/06/21 05:16:18;;;;;;;7.47;3.75;;;;;;;;;;4401322;32;21046;-56
2022/06/21 05:18:49;;;;;;;4.40;3.00;;;;;;;;;;4401291;32;20255;-56
2022/06/21 05:21:27;;;;;;;7.22;4.55;;;;;;;;;;4402763;32;20413;-56
2022/06/21 05:23:53;;;;;;;8.63;3.20;;;;;;;;;;4402968;32;20288;-56
2022/06/21 05:26:34;;;;;;;7.60;3.37;;;;;;;;;;4402727;32;20206;-56
2022/06/21 05:29:07;;;;;;;7.32;3.45;;;;;;;;;;4402896;32;20689;-57
2022/06/21 05:31:39;;;;;;;7.65;3.33;;;;;;;;;;4388641;32;20251;-58
2022/06/21 05:34:09;;;;;;;11.23;3.70;;;;;;;;;;4402193;32;20588;-57
2022/06/21 05:36:39;;;;;;;9.65;3.75;;;;;;;;;;4398760;32;20599;-56
2022/06/21 05:39:14;;;;;;;7.62;3.60;;;;;;;;;;4387759;32;20213;-56
2022/06/21 05:41:43;;;;;;;9.35;4.07;;;;;;;;;;4387347;32;20323;-57
2022/06/21 05:44:43;;;;;;;10.02;3.20;;;;;;;;;;4387783;32;20593;-57
2022/06/21 05:47:55;;;;;;;14.65;3.85;;;;;;;;;;4375709;32;20241;-58
2022/06/21 05:50:26;;;;;;;10.55;3.87;;;;;;;;;;4382468;32;20230;-56
2022/06/21 05:52:56;;;;;;;4.10;3.58;;;;;;;;;;4398828;32;20269;-57
2022/06/21 05:55:33;;;;;;;5.85;3.42;;;;;;;;;;4402889;32;20222;-58
2022/06/21 05:58:08;;;;;;;3.17;2.87;;;;;;;;;;4402371;32;20198;-57
2022/06/21 06:00:40;;;;;;;7.95;2.75;;;;;;;;;;4401322;32;20231;-60
2022/06/21 06:03:14;;;;;;;4.78;3.30;;;;;;;;;;4401878;32;20411;-57
2022/06/21 06:05:39;;;;;;;5.53;3.50;;;;;;;;;;4401973;32;20331;-57
2022/06/21 06:08:12;;;;;;;4.12;2.60;;;;;;;;;;4401983;32;20415;-57
2022/06/21 06:10:42;;;;;;;8.00;2.92;;;;;;;;;;4402148;32;20213;-57
2022/06/21 06:13:23;;;;;;;5.70;2.58;;;;;;;;;;4402414;32;20245;-58
2022/06/21 06:15:52;;;;;;;3.90;3.30;;;;;;;;;;4403668;32;20228;-57
2022/06/21 06:18:21;;;;;;;4.97;3.00;;;;;;;;;;4402064;32;20314;-57
2022/06/21 06:20:58;;;;;;;4.53;3.12;;;;;;;;;;4402225;32;20878;-57
2022/06/21 06:23:30;;;;;;;4.03;3.00;;;;;;;;;;4402607;32;20610;-57
2022/06/21 06:26:18;;;;;;;3.85;2.78;;;;;;;;;;4401464;32;20720;-57
2022/06/21 06:28:56;;;;;;;7.07;3.17;;;;;;;;;;4400669;32;20593;-58
2022/06/21 06:31:31;;;;;;;24.17;4.40;;;;;;;;;;4401965;32;20219;-57
2022/06/21 06:34:02;;;;;;;3.72;2.40;;;;;;;;;;4401740;32;20410;-58
2022/06/21 06:36:33;;;;;;;4.28;2.80;;;;;;;;;;4398925;32;20250;-56
2022/06/21 06:39:00;;;;;;;3.40;2.60;;;;;;;;;;4387212;32;20244;-56
2022/06/21 06:41:38;;;;;;;7.65;2.90;;;;;;;;;;4386383;32;20276;-56
2022/06/21 06:44:09;;;;;;;5.82;3.08;;;;;;;;;;4386309;32;20275;-56
2022/06/21 06:46:40;;;;;;;6.47;3.50;;;;;;;;;;4386347;32;20198;-57
2022/06/21 06:49:16;;;;;;;2.92;2.62;;;;;;;;;;4396766;32;20253;-56
2022/06/21 06:51:46;;;;;;;4.00;3.37;;;;;;;;;;4402387;32;20204;-58
2022/06/21 06:54:24;;;;;;;5.62;2.92;;;;;;;;;;4401949;32;20291;-58
2022/06/21 06:56:59;;;;;;;6.80;3.40;;;;;;;;;;4400562;32;20234;-57
2022/06/21 06:59:25;;;;;;;4.35;2.83;;;;;;;;;;4387132;32;20371;-57
2022/06/21 07:02:02;;;;;;;8.13;2.80;;;;;;;;;;4400595;32;20233;-57
2022/06/21 07:04:35;;;;;;;5.47;3.37;;;;;;;;;;4400780;32;20286;-58
2022/06/21 07:07:10;;;;;;;3.83;3.30;;;;;;;;;;4398788;32;20206;-59
2022/06/21 07:09:47;;;;;;;6.07;2.80;;;;;;;;;;4397911;32;20278;-58
2022/06/21 07:12:20;;;;;;;4.55;2.53;;;;;;;;;;4399887;32;20384;-58
2022/06/21 07:14:48;;;;;;;3.62;2.28;;;;;;;;;;4401706;32;20249;-58
2022/06/21 07:17:29;;;;;;;5.57;2.97;;;;;;;;;;4387887;32;20256;-58
2022/06/21 07:19:55;;;;;;;3.67;2.83;;;;;;;;;;4401533;32;20225;-59
2022/06/21 07:22:25;;;;;;;3.72;3.22;;;;;;;;;;4401897;32;20746;-58
2022/06/21 07:24:57;;;;;;;4.15;2.60;;;;;;;;;;4401333;32;20555;-58
2022/06/21 07:27:26;;;;;;;6.05;3.03;;;;;;;;;;4387329;32;20327;-58
2022/06/21 07:29:59;;;;;;;6.25;3.22;;;;;;;;;;4401283;32;20612;-58
2022/06/21 07:32:31;;;;;;;6.87;2.80;;;;;;;;;;4401660;32;20525;-59
2022/06/21 07:35:03;;;;;;;8.40;3.15;;;;;;;;;;4401670;32;20736;-56
2022/06/21 07:37:44;;;;;;;4.60;2.65;;;;;;;;;;4400155;32;20217;-56
2022/06/21 07:40:12;;;;;;;4.65;3.33;;;;;;;;;;4401729;32;20477;-56
2022/06/21 07:43:16;;;;;;;3.30;3.00;;;;;;;;;;4401538;32;20217;-56
2022/06/21 07:46:02;;;;;;;7.85;3.80;;;;;;;;;;4378711;32;20216;-57
2022/06/21 07:48:37;;;;;;;3.37;3.05;;;;;;;;;;4401650;32;20328;-58
2022/06/21 07:51:19;;;;;;;3.80;3.30;;;;;;;;;;4401235;32;20247;-58
2022/06/21 07:53:50;;;;;;;5.75;3.35;;;;;;;;;;4401647;32;20633;-58
2022/06/21 07:56:28;;;;;;;5.60;3.65;;;;;;;;;;4401046;32;20202;-58
2022/06/21 07:59:09;;;;;;;4.10;3.28;;;;;;;;;;4401530;32;20217;-58
2022/06/21 08:07:58;;;;;;;4.55;3.15;;;;;;;;;;4401198;32;20334;-58
2022/06/21 08:10:31;;;;;;;5.78;3.70;;;;;;;;;;4401915;32;20259;-58
2022/06/21 08:12:57;;;;;;;6.20;3.28;;;;;;;;;;4390409;32;20293;-58
2022/06/21 08:15:28;;;;;;;4.18;3.12;;;;;;;;;;4402882;32;20684;-59
2022/06/21 08:18:04;;;;;;;5.45;3.35;;;;;;;;;;4404216;32;20546;-58
2022/06/21 08:20:46;;;;;;;7.37;3.25;;;;;;;;;;4404168;32;20225;-59
2022/06/21 08:23:22;;;;;;;3.72;3.37;;;;;;;;;;4404287;32;20209;-58
2022/06/21 08:25:59;;;;;;;5.22;3.28;;;;;;;;;;4403682;32;20314;-58
2022/06/21 08:28:40;;;;;;;10.00;4.22;;;;;;;;;;4404265;32;20247;-58
2022/06/21 08:31:27;;;;;;;5.32;3.30;;;;;;;;;;4403945;32;20210;-58
2022/06/21 08:34:16;;;;;;;4.78;3.50;;;;;;;;;;4404002;32;20680;-58
2022/06/21 08:36:49;;;;;;;10.73;3.67;;;;;;;;;;4368259;32;20205;-58
2022/06/21 08:39:25;;;;;;;12.25;3.40;;;;;;;;;;4404383;32;20292;-57
2022/06/21 08:42:30;;;;;;;4.93;3.30;;;;;;;;;;4403381;32;20193;-58
2022/06/21 08:45:49;;;;;;;4.53;3.67;;;;;;;;;;4403774;32;20209;-58
2022/06/21 08:48:33;;;;;;;7.53;5.35;;;;;;;;;;4326720;33;20313;-58
2022/06/21 08:51:36;;;;;;;7.55;3.50;;;;;;;;;;4326680;33;20219;-58
2022/06/21 08:54:27;;;;;;;5.40;3.75;;;;;;;;;;4391051;32;20423;-57
2022/06/21 08:57:00;;;;;;;6.43;3.37;;;;;;;;;;4403583;32;20681;-57
2022/06/21 08:59:37;;;;;;;9.43;3.58;;;;;;;;;;4403595;32;20255;-57
2022/06/21 09:02:12;;;;;;;13.35;3.62;;;;;;;;;;4403400;32;20621;-57
2022/06/21 09:04:56;;;;;;;7.55;4.60;;;;;;;;;;4403622;32;20288;-58
2022/06/21 09:07:44;;;;;;;9.43;4.72;;;;;;;;;;4403131;32;20233;-57
2022/06/21 09:10:28;;;;;;;11.80;4.22;;;;;;;;;;4402845;32;20553;-57
2022/06/21 09:13:09;;;;;;;6.68;4.72;;;;;;;;;;4403339;32;20284;-57
2022/06/21 09:15:49;;;;;;;6.55;3.50;;;;;;;;;;4403155;32;20256;-57
2022/06/21 09:18:36;;;;;;;11.90;4.53;;;;;;;;;;4389431;32;20300;-58
2022/06/21 09:21:20;;;;;;;5.53;3.75;;;;;;;;;;4402879;32;20213;-57
2022/06/21 09:23:59;;;;;;;7.45;4.15;;;;;;;;;;4403428;32;20372;-58
2022/06/21 09:26:56;;;;;;;7.97;4.80;;;;;;;;;;4402746;32;20210;-58
2022/06/21 09:29:34;;;;;;;9.95;5.05;;;;;;;;;;4403092;32;20238;-57
2022/06/21 09:32:14;;;;;;;8.98;4.55;;;;;;;;;;4402671;32;20724;-58
2022/06/21 09:35:08;;;;;;;4.78;4.28;;;;;;;;;;4402652;32;20546;-58
2022/06/21 09:38:04;;;;;;;7.60;3.92;;;;;;;;;;4402878;32;20217;-57
2022/06/21 09:40:32;;;;;;;10.13;4.95;;;;;;;;;;4403002;32;20257;-57
2022/06/21 09:43:07;;;;;;;6.32;4.90;;;;;;;;;;4402794;32;20202;-58
2022/06/21 09:45:51;;;;;;;10.23;4.57;;;;;;;;;;4402958;32;20300;-57
2022/06/21 09:48:39;;;;;;;10.43;5.53;;;;;;;;;;4402589;32;20598;-57
2022/06/21 09:51:19;;;;;;;11.40;5.22;;;;;;;;;;4380663;32;20331;-58
2022/06/21 09:53:58;;;;;;;13.50;5.97;;;;;;;;;;4402610;32;20591;-58
2022/06/21 09:56:46;;;;;;;16.48;7.20;;;;;;;;;;4402499;32;20543;-58
2022/06/21 09:59:28;;;;;;;11.48;7.57;;;;;;;;;;4402673;32;20214;-57
2022/06/21 10:02:05;;;;;;;11.40;8.32;;;;;;;;;;4402805;32;20252;-58
2022/06/21 10:04:49;;;;;;;17.00;8.10;;;;;;;;;;4402511;32;20209;-59
2022/06/21 10:07:23;;;;;;;12.32;8.60;;;;;;;;;;4402296;32;20209;-57
2022/06/21 10:10:19;;;;;;;11.98;8.45;;;;;;;;;;4402352;32;20573;-57
2022/06/21 10:13:19;;;;;;;12.95;7.90;;;;;;;;;;4402683;32;20233;-59
2022/06/21 10:15:56;;;;;;;19.33;8.85;;;;;;;;;;4403030;32;20725;-58
2022/06/21 10:18:34;;;;;;;11.90;8.45;;;;;;;;;;4402854;32;20213;-57
2022/06/21 10:21:30;;;;;;;12.05;9.32;;;;;;;;;;4402860;32;20233;-58
2022/06/21 10:24:09;;;;;;;15.15;9.68;;;;;;;;;;4402197;32;20213;-58
2022/06/21 10:26:53;;;;;;;15.25;10.70;;;;;;;;;;4402616;32;20323;-58
2022/06/21 10:29:44;;;;;;;9.70;8.68;;;;;;;;;;4403440;32;20257;-58
2022/06/21 10:32:30;;;;;;;22.85;10.45;;;;;;;;;;4403247;32;20221;-58
2022/06/21 10:35:13;;;;;;;10.85;9.68;;;;;;;;;;4402919;32;20214;-58
2022/06/21 10:37:48;;;;;;;14.40;9.98;;;;;;;;;;4402886;32;20214;-58
2022/06/21 10:40:38;;;;;;;15.60;10.32;;;;;;;;;;4401649;32;20249;-58
2022/06/21 10:43:32;;;;;;;17.73;9.60;;;;;;;;;;4402447;32;20198;-58
2022/06/21 10:46:13;;;;;;;19.10;9.52;;;;;;;;;;4403295;32;20281;-57
2022/06/21 10:49:09;;;;;;;11.43;9.48;;;;;;;;;;4402753;32;20213;-57
2022/06/21 10:51:59;;;;;;;12.60;8.65;;;;;;;;;;4403019;32;20198;-57
2022/06/21 10:54:30;;;;;;;19.48;9.02;;;;;;;;;;4402692;32;20359;-57
2022/06/21 10:57:12;;;;;;;9.48;8.52;;;;;;;;;;4401781;32;20214;-57
2022/06/21 11:02:50;;;;;;;15.35;8.63;;;;;;;;;;4402617;32;20300;-56
2022/06/21 11:05:40;;;;;;;13.85;7.97;;;;;;;;;;4402619;32;20265;-58
2022/06/21 11:08:22;;;;;;;10.25;7.53;;;;;;;;;;4388495;32;20378;-57
2022/06/21 11:10:59;;;;;;;16.40;7.22;;;;;;;;;;4402150;32;20211;-56
2022/06/21 11:13:43;;;;;;;7.57;6.07;;;;;;;;;;4402558;32;20249;-56
2022/06/21 11:17:03;;;;;;;10.43;6.82;;;;;;;;;;4388393;32;20218;-57
2022/06/21 11:19:34;;;;;;;9.35;6.43;;;;;;;;;;4325676;33;20235;-57
2022/06/21 11:22:21;;;;;;;15.82;7.22;;;;;;;;;;4325983;33;20671;-57
2022/06/21 11:24:58;;;;;;;15.10;7.45;;;;;;;;;;4374912;32;20304;-58
2022/06/21 11:27:39;;;;;;;14.70;6.07;;;;;;;;;;4402327;32;20244;-57
2022/06/21 11:30:17;;;;;;;15.45;6.03;;;;;;;;;;4401882;32;20298;-57
2022/06/21 11:32:59;;;;;;;7.35;4.78;;;;;;;;;;4402327;32;20239;-58
2022/06/21 11:35:37;;;;;;;6.97;5.82;;;;;;;;;;4402526;32;20642;-58
2022/06/21 11:38:12;;;;;;;8.80;5.50;;;;;;;;;;4402282;32;20296;-57
2022/06/21 11:40:57;;;;;;;12.48;5.22;;;;;;;;;;4402297;32;20275;-57
2022/06/21 11:43:29;;;;;;;15.15;5.28;;;;;;;;;;4402231;32;20221;-57
2022/06/21 11:46:40;;;;;;;14.13;5.80;;;;;;;;;;4405266;32;20605;-58
2022/06/21 11:49:24;;;;;;;7.18;5.50;;;;;;;;;;4386198;32;20233;-58
2022/06/21 11:52:19;;;;;;;10.85;6.05;;;;;;;;;;4404464;32;20245;-58
2022/06/21 11:55:35;;;;;;;22.65;6.37;;;;;;;;;;4405089;32;20718;-58
2022/06/21 11:58:35;;;;;;;12.80;5.07;;;;;;;;;;4343375;33;20372;-57
2022/06/21 12:01:11;;;;;;;9.77;4.85;;;;;;;;;;4342795;33;20262;-57
2022/06/21 12:03:46;;;;;;;10.57;6.47;;;;;;;;;;4396075;32;20763;-57
2022/06/21 12:06:29;;;;;;;6.80;5.50;;;;;;;;;;4405125;32;20296;-58
2022/06/21 12:09:25;;;;;;;12.05;6.20;;;;;;;;;;4391004;32;20368;-58
2022/06/21 12:12:12;;;;;;;6.47;5.80;;;;;;;;;;4404709;32;20670;-58
2022/06/21 12:15:07;;;;;;;8.40;5.68;;;;;;;;;;4404537;32;20292;-59
2022/06/21 12:18:08;;;;;;;7.43;5.60;;;;;;;;;;4377235;32;20595;-58
2022/06/21 12:20:42;;;;;;;9.02;5.40;;;;;;;;;;4404834;32;20228;-58
2022/06/21 12:23:08;;;;;;;8.55;5.22;;;;;;;;;;4391009;32;20257;-57
2022/06/21 12:25:33;;;;;;;11.10;5.10;;;;;;;;;;4404239;32;20205;-57
2022/06/21 12:27:59;;;;;;;10.35;5.32;;;;;;;;;;4405038;32;20648;-57
2022/06/21 12:30:29;;;;;;;10.68;5.15;;;;;;;;;;4404841;32;20349;-56
2022/06/21 12:33:01;;;;;;;18.25;5.53;;;;;;;;;;4404956;32;20248;-58
2022/06/21 12:36:13;;;;;;;5.78;4.85;;;;;;;;;;4405216;32;20217;-57
2022/06/21 12:38:46;;;;;;;8.25;4.57;;;;;;;;;;4367845;32;20304;-57
2022/06/21 12:41:26;;;;;;;5.90;4.70;;;;;;;;;;4388614;32;20630;-57
2022/06/21 12:44:06;;;;;;;8.75;5.25;;;;;;;;;;4389775;32;20351;-57
2022/06/21 12:46:59;;;;;;;11.20;4.45;;;;;;;;;;4389924;32;20205;-58
2022/06/21 12:50:03;;;;;;;11.18;5.45;;;;;;;;;;4365397;32;20973;-57
2022/06/21 12:52:44;;;;;;;11.38;4.87;;;;;;;;;;4389481;32;20197;-59
2022/06/21 12:55:38;;;;;;;7.22;4.95;;;;;;;;;;4389291;32;20580;-58
2022/06/21 12:58:27;;;;;;;8.38;5.15;;;;;;;;;;4389071;32;20241;-58
2022/06/21 13:00:57;;;;;;;6.90;4.43;;;;;;;;;;4389301;32;20258;-59
2022/06/21 13:03:51;;;;;;;13.40;5.35;;;;;;;;;;4389750;32;20764;-57
2022/06/21 13:06:22;;;;;;;10.70;4.75;;;;;;;;;;4389962;32;20331;-59
2022/06/21 13:09:13;;;;;;;7.37;5.28;;;;;;;;;;4375463;32;20620;-56
2022/06/21 13:12:10;;;;;;;16.98;5.00;;;;;;;;;;4389181;32;20543;-58
2022/06/21 13:14:54;;;;;;;7.53;4.80;;;;;;;;;;4389081;32;20234;-58
2022/06/21 13:17:57;;;;;;;5.62;4.65;;;;;;;;;;4389384;32;20236;-57
2022/06/21 13:20:54;;;;;;;9.07;5.12;;;;;;;;;;4404577;32;20213;-59
2022/06/21 13:23:44;;;;;;;6.68;4.97;;;;;;;;;;4404057;32;20253;-58
2022/06/21 13:26:24;;;;;;;4.65;4.12;;;;;;;;;;4404625;32;20371;-58
2022/06/21 13:28:56;;;;;;;6.32;4.55;;;;;;;;;;4404143;32;20311;-58
2022/06/21 13:31:36;;;;;;;7.05;5.03;;;;;;;;;;4390315;32;20286;-59
2022/06/21 13:34:18;;;;;;;7.75;5.05;;;;;;;;;;4403830;32;20559;-58
2022/06/21 13:36:47;;;;;;;6.82;4.25;;;;;;;;;;4390272;32;20883;-58
2022/06/21 13:39:36;;;;;;;5.50;4.15;;;;;;;;;;4403995;32;20267;-58
2022/06/21 13:45:10;;;;;;;14.77;5.10;;;;;;;;;;4404189;32;20760;-58
2022/06/21 13:47:56;;;;;;;8.65;4.87;;;;;;;;;;4404456;32;20714;-59
2022/06/21 13:50:40;;;;;;;8.73;4.25;;;;;;;;;;4404163;32;20202;-58
2022/06/21 13:53:28;;;;;;;5.12;4.37;;;;;;;;;;4389831;32;20695;-58
2022/06/21 13:56:02;;;;;;;5.25;3.83;;;;;;;;;;4404090;32;20193;-57
2022/06/21 13:58:42;;;;;;;7.43;3.92;;;;;;;;;;4404380;32;20373;-58
2022/06/21 14:01:13;;;;;;;11.30;4.70;;;;;;;;;;4402862;32;20240;-59
2022/06/21 14:04:17;;;;;;;5.53;4.28;;;;;;;;;;4401422;32;20288;-58
2022/06/21 14:06:45;;;;;;;8.68;4.97;;;;;;;;;;4380695;32;20225;-57
2022/06/21 14:09:44;;;;;;;13.07;5.57;;;;;;;;;;4402831;32;20298;-58
2022/06/21 14:12:34;;;;;;;9.45;4.82;;;;;;;;;;4404134;32;20289;-58
2022/06/21 14:15:05;;;;;;;10.52;4.53;;;;;;;;;;4404202;32;20292;-57
2022/06/21 14:17:37;;;;;;;8.30;4.00;;;;;;;;;;4403828;32;20249;-57
2022/06/21 14:20:18;;;;;;;6.47;4.07;;;;;;;;;;4403818;32;20615;-58
2022/06/21 14:23:03;;;;;;;4.35;3.72;;;;;;;;;;4403929;32;20218;-58
2022/06/21 14:25:41;;;;;;;5.70;4.05;;;;;;;;;;4403885;32;20635;-58
2022/06/21 14:28:49;;;;;;;11.77;5.57;;;;;;;;;;4494291;31;20342;-58
2022/06/21 14:31:26;;;;;;;7.57;4.10;;;;;;;;;;4474818;32;20578;-58
2022/06/21 14:34:03;;;;;;;9.27;4.10;;;;;;;;;;4462923;32;20191;-58
2022/06/21 14:36:36;;;;;;;9.00;4.20;;;;;;;;;;4462660;32;20617;-57
2022/06/21 14:39:33;;;;;;;10.82;4.43;;;;;;;;;;4462186;32;20193;-58
2022/06/21 14:42:06;;;;;;;8.85;4.55;;;;;;;;;;4449636;32;20220;-58
2022/06/21 14:44:36;;;;;;;5.72;4.12;;;;;;;;;;4462422;32;20201;-59
2022/06/21 14:47:21;;;;;;;6.65;3.90;;;;;;;;;;4462497;32;20224;-58
2022/06/21 14:50:08;;;;;;;12.90;5.35;;;;;;;;;;4461822;32;20536;-58
2022/06/21 14:52:58;;;;;;;7.97;4.03;;;;;;;;;;4462404;32;20247;-58
2022/06/21 14:55:36;;;;;;;6.05;3.37;;;;;;;;;;4461813;32;20278;-58
2022/06/21 14:58:07;;;;;;;12.73;4.95;;;;;;;;;;4462004;32;20292;-58
2022/06/21 15:00:44;;;;;;;5.55;4.40;;;;;;;;;;4462172;32;20243;-59
2022/06/21 15:03:19;;;;;;;5.97;3.28;;;;;;;;;;4462071;32;20258;-59
2022/06/21 15:05:50;;;;;;;6.68;3.55;;;;;;;;;;4462055;32;20196;-59
2022/06/21 15:08:39;;;;;;;10.57;4.40;;;;;;;;;;4461793;32;20314;-59
2022/06/21 15:11:52;;;;;;;6.62;4.12;;;;;;;;;;4461775;32;20189;-60
2022/06/21 15:14:15;;;;;;;4.72;3.67;;;;;;;;;;4458107;32;20227;-57
2022/06/21 15:16:56;;;;;;;4.97;4.35;;;;;;;;;;4446565;32;20732;-58
2022/06/21 15:19:54;;;;;;;8.30;4.65;;;;;;;;;;4459519;32;20220;-59
2022/06/21 15:22:25;;;;;;;5.72;4.00;;;;;;;;;;4460719;32;20225;-59
2022/06/21 15:25:00;;;;;;;4.60;3.90;;;;;;;;;;4461691;32;20238;-58
2022/06/21 15:27:31;;;;;;;20.42;6.28;;;;;;;;;;4461713;32;20325;-59
2022/06/21 15:29:58;;;;;;;12.48;4.70;;;;;;;;;;4460821;32;20262;-58
2022/06/21 15:32:34;;;;;;;11.48;5.30;;;;;;;;;;4461906;32;20235;-59
2022/06/21 15:35:03;;;;;;;10.73;4.95;;;;;;;;;;4461752;32;20207;-58
2022/06/21 15:37:49;;;;;;;6.45;4.20;;;;;;;;;;4461407;32;20216;-58
2022/06/21 15:40:26;;;;;;;13.75;5.90;;;;;;;;;;4451160;32;20279;-59
2022/06/21 15:43:04;;;;;;;7.85;4.97;;;;;;;;;;4451402;32;20633;-58
2022/06/21 15:45:32;;;;;;;9.50;4.93;;;;;;;;;;4449860;32;20281;-58
2022/06/21 15:51:02;;;;;;;6.78;4.95;;;;;;;;;;4451061;32;20227;-60
2022/06/21 15:53:50;;;;;;;10.55;5.20;;;;;;;;;;4450970;32;20188;-59
2022/06/21 15:56:22;;;;;;;9.85;5.10;;;;;;;;;;4451089;32;20208;-59
2022/06/21 15:59:23;;;;;;;7.80;4.87;;;;;;;;;;4450829;32;20670;-58
2022/06/21 16:01:48;;;;;;;7.82;5.40;;;;;;;;;;4450809;32;20258;-59
2022/06/21 16:04:38;;;;;;;7.55;4.78;;;;;;;;;;4451234;32;20553;-59
2022/06/21 16:07:22;;;;;;;12.73;5.05;;;;;;;;;;4450749;32;20276;-60
2022/06/21 16:09:52;;;;;;;8.30;4.90;;;;;;;;;;4450967;32;20617;-60